Time;durP1;ratioP1;P1;durP2;ratioP2;P2;SDS_P1;SDS_P2;PMS_P1;PMS_P2;Temp;Humidity;BMP_temperature;BMP_pressure;BME280_temperature;BME280_humidity;BME280_pressure;Samples;Min_cycle;Max_cycle;Signal;HPM_P1;HPM_P2
2022/08/06 00:02:19;;;;;;;11.73;7.13;;;;;;;15.67;92.91;99064.59;5059473;28;20321;-68
2022/08/06 00:04:45;;;;;;;8.35;6.40;;;;;;;15.65;93.24;99066.41;5063156;28;20027;-68
2022/08/06 00:07:10;;;;;;;11.57;7.47;;;;;;;15.60;93.42;99071.00;5057288;28;20021;-68
2022/08/06 00:09:35;;;;;;;9.23;6.57;;;;;;;15.65;93.59;99081.47;5048843;28;20028;-68
2022/08/06 00:12:02;;;;;;;9.43;6.80;;;;;;;15.56;93.63;99074.69;5062997;28;20029;-68
2022/08/06 00:14:28;;;;;;;11.95;7.28;;;;;;;15.24;94.45;99069.47;5058032;28;20036;-68
2022/08/06 00:16:55;;;;;;;12.10;7.72;;;;;;;15.17;96.00;99073.25;5045194;28;20036;-68
2022/08/06 00:19:20;;;;;;;11.95;8.00;;;;;;;15.11;96.80;99078.75;5045008;28;20075;-68
2022/08/06 00:21:46;;;;;;;13.40;7.70;;;;;;;15.07;97.28;99083.25;5056009;28;20025;-68
2022/08/06 00:24:12;;;;;;;7.93;7.10;;;;;;;15.14;97.17;99083.94;5065095;28;20095;-68
2022/08/06 00:26:38;;;;;;;7.45;6.65;;;;;;;15.11;96.87;99078.75;5060724;28;20043;-68
2022/08/06 00:29:04;;;;;;;11.57;7.90;;;;;;;14.97;97.13;99089.75;5047402;28;20048;-68
2022/08/06 00:31:30;;;;;;;11.00;7.57;;;;;;;14.83;97.29;99099.91;5051816;28;20357;-68
2022/08/06 00:33:55;;;;;;;12.52;8.20;;;;;;;14.83;98.13;99093.72;5062992;28;20025;-68
2022/08/06 00:36:22;;;;;;;9.45;7.50;;;;;;;14.91;98.40;99091.72;5058131;28;20030;-68
2022/08/06 00:38:48;;;;;;;9.77;6.90;;;;;;;14.90;97.80;99089.97;5061444;28;20033;-68
2022/08/06 00:41:14;;;;;;;8.88;7.38;;;;;;;14.84;98.10;99095.47;5063001;28;20032;-68
2022/08/06 00:43:42;;;;;;;9.48;7.30;;;;;;;14.73;98.21;99097.56;5059905;28;20032;-68
2022/08/06 00:46:07;;;;;;;8.85;7.28;;;;;;;14.66;99.12;99103.94;5050421;28;20071;-68
2022/08/06 00:48:33;;;;;;;10.50;7.55;;;;;;;14.75;98.78;99107.19;5058552;28;20025;-68
2022/08/06 00:50:58;;;;;;;10.55;8.07;;;;;;;14.74;98.56;99109.88;5047405;28;20032;-68
2022/08/06 00:53:23;;;;;;;11.40;7.97;;;;;;;14.72;98.71;99101.13;5047418;28;20028;-68
2022/08/06 00:55:49;;;;;;;15.35;7.93;;;;;;;14.71;98.90;99104.66;5062438;28;20100;-68
2022/08/06 00:58:14;;;;;;;11.15;7.32;;;;;;;14.59;98.22;99105.88;5058247;28;20020;-68
2022/08/06 01:00:40;;;;;;;10.65;7.95;;;;;;;14.55;99.26;99116.59;5049085;28;20028;-68
2022/08/06 01:03:05;;;;;;;11.10;6.82;;;;;;;14.61;99.08;99114.66;5060458;28;20029;-68
2022/08/06 01:05:31;;;;;;;9.25;7.75;;;;;;;14.66;98.73;99119.84;5066266;28;20320;-68
2022/08/06 01:07:56;;;;;;;11.35;7.35;;;;;;;14.60;98.62;99120.00;5063525;28;20025;-68
2022/08/06 01:10:24;;;;;;;12.98;7.10;;;;;;;14.51;97.75;99117.59;5064156;28;20028;-68
2022/08/06 01:12:50;;;;;;;9.63;6.68;;;;;;;14.34;97.88;99114.56;5066217;28;20047;-68
2022/08/06 01:15:15;;;;;;;9.13;7.40;;;;;;;14.31;99.09;99104.91;5058930;28;20021;-68
2022/08/06 01:17:47;;;;;;;10.57;8.02;;;;;;;14.37;98.83;99103.88;5046928;28;20032;-68
2022/08/06 01:20:37;;;;;;;8.98;7.55;;;;;;;14.34;98.60;99114.56;5057881;28;20024;-68
2022/08/06 01:23:20;;;;;;;11.90;7.72;;;;;;;14.31;98.28;99110.22;5055912;28;20205;-68
2022/08/06 01:26:18;;;;;;;10.68;7.38;;;;;;;14.35;98.43;99113.63;5047875;28;20021;-68
2022/08/06 01:28:53;;;;;;;10.68;7.10;;;;;;;14.30;98.20;99113.75;5047643;28;20041;-68
2022/08/06 01:31:37;;;;;;;10.13;7.20;;;;;;;14.09;98.77;99109.00;5058603;28;20301;-68
2022/08/06 01:34:09;;;;;;;8.20;6.28;;;;;;;13.97;98.72;99108.44;5054662;28;20032;-68
2022/08/06 01:36:44;;;;;;;9.05;6.35;;;;;;;13.89;99.78;99115.72;5052917;28;20312;-68
2022/08/06 01:39:11;;;;;;;10.70;7.55;;;;;;;13.97;100.00;99113.72;5064240;28;20020;-68
2022/08/06 01:41:43;;;;;;;13.13;7.72;;;;;;;13.99;100.00;99111.91;5054531;28;20092;-68
2022/08/06 01:44:13;;;;;;;9.80;7.13;;;;;;;13.89;99.67;99118.34;5060042;28;20343;-68
2022/08/06 01:46:46;;;;;;;11.98;8.02;;;;;;;13.86;100.00;99121.06;5057400;28;20036;-68
2022/08/06 01:49:13;;;;;;;11.57;7.72;;;;;;;13.72;100.00;99125.81;5051058;28;20029;-68
2022/08/06 01:51:40;;;;;;;9.70;7.57;;;;;;;13.62;100.00;99121.66;5046223;28;20248;-68
2022/08/06 01:54:08;;;;;;;10.35;7.28;;;;;;;13.62;100.00;99119.00;5057107;28;20021;-68
2022/08/06 01:56:36;;;;;;;9.35;7.35;;;;;;;13.56;100.00;99116.50;5064549;28;20024;-68
2022/08/06 01:59:05;;;;;;;13.95;7.07;;;;;;;13.51;100.00;99119.25;5052511;28;20021;-68
2022/08/06 02:01:35;;;;;;;11.48;6.47;;;;;;;13.42;100.00;99124.78;5053940;28;20049;-68
2022/08/06 02:04:01;;;;;;;12.23;6.97;;;;;;;13.41;100.00;99130.09;5047704;28;20241;-68
2022/08/06 02:06:32;;;;;;;10.45;7.30;;;;;;;13.48;100.00;99124.63;5048269;28;20112;-68
2022/08/06 02:09:01;;;;;;;8.68;6.50;;;;;;;13.44;99.77;99132.69;5047140;28;20088;-68
2022/08/06 02:11:27;;;;;;;9.65;6.53;;;;;;;13.47;100.00;99132.56;5057728;28;20272;-68
2022/08/06 02:13:55;;;;;;;11.20;7.03;;;;;;;13.44;100.00;99138.81;5045975;28;20025;-68
2022/08/06 02:16:22;;;;;;;9.68;7.68;;;;;;;13.24;100.00;99138.41;5045772;28;20066;-68
2022/08/06 02:18:51;;;;;;;10.80;7.50;;;;;;;13.26;100.00;99138.38;5057667;28;20021;-68
2022/08/06 02:21:19;;;;;;;7.93;6.10;;;;;;;13.21;100.00;99145.50;5058743;28;20048;-68
2022/08/06 02:23:45;;;;;;;7.47;6.38;;;;;;;13.17;100.00;99149.13;5051440;28;20213;-68
2022/08/06 02:26:13;;;;;;;10.57;7.25;;;;;;;13.13;100.00;99150.97;5045614;28;20028;-68
2022/08/06 02:28:42;;;;;;;8.68;6.88;;;;;;;13.13;100.00;99150.13;5046617;28;20359;-68
2022/08/06 02:31:08;;;;;;;13.85;6.88;;;;;;;13.06;100.00;99148.50;5053616;28;20049;-68
2022/08/06 02:33:33;;;;;;;7.43;6.68;;;;;;;13.12;100.00;99151.00;5052324;28;20025;-69
2022/08/06 02:36:16;;;;;;;9.68;6.35;;;;;;;13.14;100.00;99151.84;5059561;28;20021;-69
2022/08/06 02:39:07;;;;;;;8.88;7.03;;;;;;;13.09;100.00;99162.50;5046528;28;20268;-69
2022/08/06 02:41:40;;;;;;;11.88;6.18;;;;;;;12.96;99.55;99150.41;5057133;28;20037;-69
2022/08/06 02:44:22;;;;;;;7.95;6.00;;;;;;;12.95;100.00;99149.53;5048880;28;20088;-69
2022/08/06 02:47:01;;;;;;;8.45;6.25;;;;;;;12.96;100.00;99145.13;5045233;28;20031;-69
2022/08/06 02:49:30;;;;;;;7.78;6.88;;;;;;;12.89;100.00;99154.97;5059778;28;20325;-69
2022/08/06 02:52:03;;;;;;;9.48;7.00;;;;;;;12.76;100.00;99153.44;5057501;28;20062;-69
2022/08/06 02:54:33;;;;;;;;;;;;;;;12.60;100.00;99159.94;5052152;28;20025;-69
2022/08/06 02:57:03;;;;;;;10.13;6.43;;;;;;;12.59;100.00;99160.84;5045009;28;19921;-69
2022/08/06 02:59:35;;;;;;;8.27;6.40;;;;;;;12.54;100.00;99157.44;5046318;28;20029;-69
2022/08/06 03:02:02;;;;;;;9.57;6.43;;;;;;;12.46;100.00;99159.34;5057835;28;20041;-69
2022/08/06 03:04:29;;;;;;;8.18;5.70;;;;;;;12.38;100.00;99158.63;5051553;28;20062;-69
2022/08/06 03:06:58;;;;;;;9.93;7.13;;;;;;;12.49;100.00;99164.56;5062313;28;20035;-69
2022/08/06 03:09:24;;;;;;;10.38;6.65;;;;;;;12.53;100.00;99158.31;5062171;28;20083;-69
2022/08/06 03:11:52;;;;;;;9.88;6.28;;;;;;;12.51;100.00;99157.50;5055909;28;20016;-69
2022/08/06 03:14:20;;;;;;;7.90;6.30;;;;;;;12.46;100.00;99166.38;5057899;28;20021;-69
2022/08/06 03:16:48;;;;;;;10.38;6.25;;;;;;;12.33;100.00;99157.81;5044710;28;20029;-69
2022/08/06 03:19:14;;;;;;;7.80;6.18;;;;;;;12.31;100.00;99159.59;5045775;28;20225;-69
2022/08/06 03:21:42;;;;;;;9.27;6.63;;;;;;;12.35;100.00;99165.72;5056732;28;20067;-69
2022/08/06 03:24:09;;;;;;;8.90;6.40;;;;;;;12.35;100.00;99166.59;5060780;28;20017;-69
2022/08/06 03:26:36;;;;;;;11.13;6.55;;;;;;;12.27;100.00;99168.50;5063883;28;20063;-69
2022/08/06 03:29:03;;;;;;;7.93;6.00;;;;;;;12.18;100.00;99168.63;5057085;28;20052;-69
2022/08/06 03:31:30;;;;;;;8.90;6.10;;;;;;;12.17;100.00;99177.47;5053735;28;20025;-69
2022/08/06 03:33:57;;;;;;;8.85;6.55;;;;;;;12.20;100.00;99177.41;5045768;28;20095;-69
2022/08/06 03:36:23;;;;;;;9.50;6.90;;;;;;;12.34;100.00;99177.19;5058250;28;20044;-69
2022/08/06 03:38:54;;;;;;;9.85;6.15;;;;;;;12.31;100.00;99174.59;5056186;28;20048;-69
2022/08/06 03:41:19;;;;;;;8.27;6.70;;;;;;;12.30;100.00;99180.75;5057155;28;20024;-68
2022/08/06 03:43:45;;;;;;;8.63;6.35;;;;;;;12.32;100.00;99181.59;5063382;28;20220;-68
2022/08/06 03:46:15;;;;;;;6.90;5.60;;;;;;;12.22;100.00;99183.50;5048497;28;20021;-68
2022/08/06 03:48:42;;;;;;;8.05;6.40;;;;;;;12.23;100.00;99181.75;5044166;28;20025;-68
2022/08/06 03:51:16;;;;;;;11.45;6.10;;;;;;;12.26;100.00;99182.59;5050475;28;20024;-68
2022/08/06 03:53:44;;;;;;;10.82;5.90;;;;;;;12.17;100.00;99177.47;5054458;28;20221;-68
2022/08/06 03:56:15;;;;;;;7.28;6.00;;;;;;;12.15;100.00;99178.41;5045655;28;20365;-68
2022/08/06 03:58:44;;;;;;;10.27;6.35;;;;;;;12.08;100.00;99182.88;5063403;28;20028;-68
2022/08/06 04:01:14;;;;;;;9.73;5.80;;;;;;;12.10;100.00;99191.66;5060614;28;20033;-68
2022/08/06 04:03:40;;;;;;;10.00;6.03;;;;;;;12.01;100.00;99186.53;5052561;28;20021;-68
2022/08/06 04:06:09;;;;;;;7.18;5.43;;;;;;;11.99;100.00;99182.19;5053845;28;20248;-68
2022/08/06 04:08:36;;;;;;;7.05;5.90;;;;;;;11.93;100.00;99187.56;5049848;28;20028;-68
2022/08/06 04:11:02;;;;;;;10.55;6.30;;;;;;;11.97;100.00;99190.13;5052175;28;20247;-68
2022/08/06 04:13:28;;;;;;;8.07;6.07;;;;;;;12.07;100.00;99196.09;5043894;28;20021;-68
2022/08/06 04:15:55;;;;;;;9.23;6.70;;;;;;;12.19;100.00;99204.72;5043826;28;20025;-68
2022/08/06 04:18:32;;;;;;;8.57;5.82;;;;;;;12.24;100.00;99201.97;5056911;28;20036;-68
2022/08/06 04:21:02;;;;;;;9.57;5.95;;;;;;;12.23;100.00;99203.75;5052974;28;20033;-68
2022/08/06 04:23:27;;;;;;;8.57;6.10;;;;;;;12.22;100.00;99209.91;5054982;28;20029;-68
2022/08/06 04:26:01;;;;;;;9.27;5.63;;;;;;;12.31;100.00;99215.03;5067059;28;20021;-68
2022/08/06 04:28:28;;;;;;;9.32;5.30;;;;;;;12.34;100.00;99207.06;5063373;28;20076;-68
2022/08/06 04:30:55;;;;;;;7.13;4.60;;;;;;;12.45;100.00;99210.41;5051441;28;20273;-68
2022/08/06 04:33:22;;;;;;;12.38;5.18;;;;;;;12.46;100.00;99212.16;5059858;28;20216;-68
2022/08/06 04:35:48;;;;;;;7.60;5.07;;;;;;;12.55;100.00;99214.63;5055648;28;20044;-68
2022/08/06 04:38:16;;;;;;;7.40;4.43;;;;;;;12.54;99.41;99214.66;5048792;28;20029;-68
2022/08/06 04:40:42;;;;;;;10.95;4.60;;;;;;;12.42;98.32;99215.75;5065558;28;20020;-68
2022/08/06 04:43:12;;;;;;;7.00;4.45;;;;;;;12.40;98.30;99222.81;5066735;28;20032;-68
2022/08/06 04:45:39;;;;;;;5.20;4.20;;;;;;;12.38;98.93;99219.34;5066694;28;20344;-68
2022/08/06 04:48:07;;;;;;;6.53;4.60;;;;;;;12.38;98.82;99218.47;5066972;28;20016;-68
2022/08/06 04:50:34;;;;;;;7.45;4.68;;;;;;;12.40;98.85;99217.53;5062628;28;20032;-68
2022/08/06 04:53:17;;;;;;;5.22;3.50;;;;;;;12.59;98.44;99226.88;5047428;28;20248;-68
2022/08/06 04:55:45;;;;;;;6.65;4.32;;;;;;;12.55;98.05;99230.47;5060475;28;20055;-68
2022/08/06 04:58:12;;;;;;;6.53;4.45;;;;;;;12.69;97.49;99230.22;5065073;28;20076;-68
2022/08/06 05:00:40;;;;;;;5.78;4.35;;;;;;;13.07;94.73;99233.91;5064057;28;20408;-68
2022/08/06 05:03:06;;;;;;;5.78;3.65;;;;;;;12.94;94.79;99237.66;5066909;28;20017;-68
2022/08/06 05:05:38;;;;;;;6.43;3.97;;;;;;;13.03;95.58;99244.56;5064998;28;20252;-68
2022/08/06 05:08:05;;;;;;;7.65;3.80;;;;;;;13.26;95.26;99238.81;5057030;28;20088;-68
2022/08/06 05:10:51;;;;;;;9.02;3.13;;;;;;;14.21;91.80;99256.06;5063525;28;20036;-68
2022/08/06 05:13:20;;;;;;;6.28;3.13;;;;;;;15.67;85.85;99262.75;5059933;28;20072;-68
2022/08/06 05:15:51;;;;;;;5.90;3.75;;;;;;;16.36;79.91;99253.44;5060437;28;20028;-68
2022/08/06 05:18:25;;;;;;;4.95;2.38;;;;;;;17.16;76.47;99259.56;5048873;28;20029;-68
2022/08/06 05:20:54;;;;;;;8.50;2.72;;;;;;;17.75;73.49;99259.19;5052896;28;20324;-68
2022/08/06 05:23:27;;;;;;;7.07;2.55;;;;;;;18.44;71.18;99262.63;5064342;28;20044;-68
2022/08/06 05:25:52;;;;;;;8.38;2.00;;;;;;;19.05;69.63;99266.25;5050746;28;20021;-68
2022/08/06 05:28:18;;;;;;;2.53;1.80;;;;;;;19.53;66.02;99258.78;5047730;28;20049;-68
2022/08/06 05:30:46;;;;;;;12.65;2.80;;;;;;;19.18;66.60;99256.78;5047582;28;20033;-68
2022/08/06 05:33:22;;;;;;;5.57;2.08;;;;;;;19.85;64.87;99260.84;5047746;28;20088;-68
2022/08/06 05:35:47;;;;;;;2.75;1.90;;;;;;;20.35;63.98;99264.66;5065986;28;20028;-68
2022/08/06 05:38:13;;;;;;;6.20;2.13;;;;;;;20.19;63.08;99260.97;5064108;28;20213;-68
2022/08/06 05:40:39;;;;;;;5.18;1.73;;;;;;;21.09;61.13;99269.84;5062154;28;20040;-68
2022/08/06 05:43:05;;;;;;;2.95;1.60;;;;;;;21.29;59.22;99263.41;5048449;28;20026;-68
2022/08/06 05:45:31;;;;;;;4.82;2.00;;;;;;;21.11;58.70;99265.25;5059613;28;20040;-68
2022/08/06 05:48:00;;;;;;;4.00;1.60;;;;;;;21.89;57.86;99272.72;5061156;28;20029;-68
2022/08/06 05:50:32;;;;;;;2.33;1.52;;;;;;;22.09;56.53;99273.34;5057066;28;20123;-69
2022/08/06 05:53:09;;;;;;;4.22;1.48;;;;;;;22.39;55.31;99266.25;5064062;28;20025;-69
2022/08/06 05:55:38;;;;;;;2.70;1.42;;;;;;;22.62;54.73;99267.66;5056176;28;20030;-69
2022/08/06 05:58:13;;;;;;;5.07;1.60;;;;;;;22.53;54.98;99262.81;5063536;28;20339;-69
2022/08/06 06:00:40;;;;;;;3.35;1.65;;;;;;;22.53;54.46;99262.81;5058526;28;20061;-69
2022/08/06 06:03:09;;;;;;;3.90;1.48;;;;;;;22.59;54.28;99263.31;5048985;28;20049;-68
2022/08/06 06:05:36;;;;;;;3.83;1.48;;;;;;;23.20;52.65;99261.41;5058166;28;20025;-68
2022/08/06 06:08:02;;;;;;;1.90;1.30;;;;;;;22.87;51.98;99267.94;5047178;28;20021;-69
2022/08/06 06:10:28;;;;;;;3.03;1.40;;;;;;;23.01;52.27;99276.06;5063269;28;20198;-68
2022/08/06 06:12:56;;;;;;;2.30;1.23;;;;;;;23.50;51.19;99277.53;5046005;28;20036;-69
2022/08/06 06:15:21;;;;;;;3.85;1.40;;;;;;;24.34;50.43;99296.38;5057337;28;20025;-68
2022/08/06 06:17:53;;;;;;;3.60;1.42;;;;;;;24.80;48.82;99283.47;5064960;28;20062;-68
2022/08/06 06:20:28;;;;;;;;;;;;;;;25.22;48.12;99292.22;5065338;28;20060;-67
2022/08/06 06:23:13;;;;;;;2.55;1.23;;;;;;;24.45;47.71;99277.69;5065408;28;20197;-68
2022/08/06 06:25:48;;;;;;;4.38;1.30;;;;;;;23.97;48.90;99275.47;5048461;28;20067;-68
2022/08/06 06:28:31;;;;;;;6.10;1.30;;;;;;;24.79;46.89;99277.25;5063265;28;20036;-68
2022/08/06 06:31:07;;;;;;;4.28;1.33;;;;;;;24.89;47.57;99274.78;5045605;28;20025;-68
2022/08/06 06:33:47;;;;;;;3.90;1.20;;;;;;;25.63;45.25;99280.47;5045890;28;20025;-69
2022/08/06 06:36:34;;;;;;;2.13;1.10;;;;;;;25.66;46.00;99291.03;5045499;28;20021;-69
2022/08/06 06:39:17;;;;;;;2.63;1.23;;;;;;;25.52;44.43;99277.63;5050258;28;20025;-70
2022/08/06 06:41:53;;;;;;;3.30;1.20;;;;;;;25.40;45.53;99289.28;5063845;28;20017;-68
2022/08/06 06:44:24;;;;;;;5.93;1.98;;;;;;;25.64;44.85;99282.19;5050290;28;20032;-69
2022/08/06 06:47:01;;;;;;;5.00;1.15;;;;;;;26.81;43.26;99289.78;5053859;28;20029;-69
2022/08/06 06:49:33;;;;;;;3.65;1.23;;;;;;;27.05;42.22;99282.53;5064694;28;20060;-69
2022/08/06 06:52:08;;;;;;;4.18;1.17;;;;;;;27.15;43.38;99288.97;5064295;28;20052;-69
2022/08/06 06:54:43;;;;;;;2.35;1.20;;;;;;;27.01;42.67;99283.72;5059937;28;20029;-69
2022/08/06 06:57:12;;;;;;;3.97;1.40;;;;;;;26.44;42.49;99290.75;5046380;28;20067;-69
2022/08/06 06:59:43;;;;;;;3.65;1.05;;;;;;;27.28;41.58;99295.19;5061914;28;20031;-69
2022/08/06 07:02:16;;;;;;;2.35;1.33;;;;;;;26.23;43.00;99286.94;5049746;28;20120;-69
2022/08/06 07:04:42;;;;;;;2.13;1.10;;;;;;;27.74;41.36;99303.31;5055143;28;20021;-69
2022/08/06 07:07:08;;;;;;;5.60;1.08;;;;;;;27.03;40.35;99284.50;5053624;28;20059;-69
2022/08/06 07:09:35;;;;;;;3.85;1.20;;;;;;;27.22;41.46;99295.63;5051092;28;20025;-68
2022/08/06 07:12:02;;;;;;;3.17;1.50;;;;;;;27.56;40.38;99294.78;5047033;28;20048;-68
2022/08/06 07:14:29;;;;;;;4.72;1.40;;;;;;;26.96;41.24;99288.63;5050239;28;20029;-68
2022/08/06 07:16:58;;;;;;;4.22;1.10;;;;;;;26.81;41.49;99285.25;5051615;28;20092;-68
2022/08/06 07:19:24;;;;;;;4.13;1.58;;;;;;;27.14;41.43;99287.22;5052247;28;20213;-68
2022/08/06 07:21:50;;;;;;;2.22;1.15;;;;;;;27.83;39.30;99294.44;5058051;28;20100;-68
2022/08/06 07:24:17;;;;;;;5.15;1.20;;;;;;;27.91;38.83;99295.63;5051633;28;20218;-68
2022/08/06 07:26:44;;;;;;;5.95;1.17;;;;;;;27.83;38.90;99298.03;5044460;28;20018;-69
2022/08/06 07:29:12;;;;;;;3.35;1.38;;;;;;;27.74;39.58;99304.16;5044413;28;20048;-69
2022/08/06 07:31:40;;;;;;;3.58;1.05;;;;;;;27.13;39.41;99285.50;5051016;28;20321;-69
2022/08/06 07:34:06;;;;;;;4.30;1.40;;;;;;;27.47;39.98;99305.44;5054510;28;20202;-69
2022/08/06 07:36:39;;;;;;;4.95;1.38;;;;;;;28.01;39.21;99307.44;5062906;28;20037;-69
2022/08/06 07:39:10;;;;;;;2.92;1.20;;;;;;;28.39;38.30;99299.81;5060039;28;20039;-69
2022/08/06 07:41:37;;;;;;;;;;;;;;;27.54;39.34;99302.16;5061993;28;20047;-69
2022/08/06 07:44:05;;;;;;;5.45;1.70;;;;;;;28.34;37.88;99309.25;5047587;28;20197;-69
2022/08/06 07:46:54;;;;;;;6.15;1.30;;;;;;;28.18;38.75;99306.94;5052799;28;20020;-69
2022/08/06 07:49:24;;;;;;;2.38;1.00;;;;;;;28.43;37.96;99309.38;5057200;28;20029;-69
2022/08/06 07:51:50;;;;;;;4.03;1.30;;;;;;;29.60;36.69;99319.41;5050307;28;20052;-69
2022/08/06 07:54:18;;;;;;;3.97;1.30;;;;;;;28.61;36.12;99301.66;5058556;28;20063;-69
2022/08/06 07:56:44;;;;;;;3.53;1.42;;;;;;;28.66;38.33;99305.69;5055718;28;20048;-69
2022/08/06 07:59:10;;;;;;;3.55;1.23;;;;;;;28.25;38.28;99305.44;5056871;28;20248;-69
2022/08/06 08:01:37;;;;;;;2.63;1.02;;;;;;;28.34;37.13;99315.53;5055036;28;20071;-69
2022/08/06 08:06:57;;;;;;;3.85;1.27;;;;;;;28.12;37.32;99303.88;5060723;28;20031;-69
2022/08/06 08:09:23;;;;;;;;;;;;;;;28.34;36.80;99302.00;5063310;28;20237;-69
2022/08/06 08:11:50;;;;;;;2.90;1.25;;;;;;;28.29;37.42;99314.19;5063808;28;19911;-69
2022/08/06 08:14:21;;;;;;;2.20;0.93;;;;;;;28.67;36.92;99310.09;5063294;28;20084;-69
2022/08/06 08:16:46;;;;;;;2.67;1.20;;;;;;;28.62;35.80;99308.78;5043924;28;20021;-69
2022/08/06 08:19:33;;;;;;;3.72;1.17;;;;;;;28.55;35.86;99308.44;5056628;28;20032;-69
2022/08/06 08:22:01;;;;;;;6.07;1.27;;;;;;;28.23;36.55;99307.44;5044482;28;20321;-69
2022/08/06 08:24:27;;;;;;;1.75;1.10;;;;;;;28.69;35.96;99316.28;5047870;28;20316;-69
2022/08/06 08:26:54;;;;;;;4.25;1.25;;;;;;;27.93;36.03;99309.88;5058195;28;20331;-69
2022/08/06 08:29:19;;;;;;;5.25;1.30;;;;;;;28.48;35.73;99301.81;5053297;28;20079;-69
2022/08/06 08:31:45;;;;;;;6.13;1.35;;;;;;;28.68;35.30;99298.31;5059665;28;20232;-69
2022/08/06 08:34:11;;;;;;;5.07;1.08;;;;;;;28.80;36.18;99305.44;5059814;28;20021;-69
2022/08/06 08:36:37;;;;;;;5.35;1.52;;;;;;;29.46;34.10;99303.47;5047779;28;20034;-70
2022/08/06 08:39:03;;;;;;;5.68;1.20;;;;;;;29.04;35.44;99295.25;5049287;28;20025;-69
2022/08/06 08:41:36;;;;;;;4.18;1.20;;;;;;;29.58;35.11;99310.56;5059784;28;20040;-69
2022/08/06 08:44:05;;;;;;;7.53;1.55;;;;;;;30.16;34.86;99320.78;5063811;28;20247;-69
2022/08/06 08:46:34;;;;;;;4.35;1.58;;;;;;;28.95;35.46;99314.97;5063244;28;20205;-68
2022/08/06 08:49:04;;;;;;;7.10;1.52;;;;;;;29.92;34.41;99309.34;5062203;28;20025;-68
2022/08/06 08:51:39;;;;;;;3.60;1.73;;;;;;;29.01;34.79;99289.22;5063252;28;20372;-70
2022/08/06 08:54:11;;;;;;;2.25;1.13;;;;;;;28.99;35.32;99292.06;5062105;28;20258;-69
2022/08/06 08:56:37;;;;;;;5.03;1.27;;;;;;;27.90;36.59;99287.63;5056489;28;20044;-69
2022/08/06 08:59:04;;;;;;;7.32;1.50;;;;;;;28.52;35.79;99288.84;5043531;28;20037;-69
2022/08/06 09:01:30;;;;;;;4.40;1.30;;;;;;;28.78;35.32;99299.25;5057294;28;20371;-69
2022/08/06 09:03:56;;;;;;;6.88;1.40;;;;;;;29.32;35.29;99287.53;5063124;28;20032;-69
2022/08/06 09:06:21;;;;;;;4.25;1.10;;;;;;;29.27;35.24;99301.47;5061576;28;20025;-69
2022/08/06 09:08:47;;;;;;;4.13;1.40;;;;;;;28.79;35.21;99295.56;5045940;28;20036;-69
2022/08/06 09:11:14;;;;;;;3.30;1.23;;;;;;;29.13;34.73;99294.50;5065098;28;20392;-69
2022/08/06 09:13:39;;;;;;;6.90;1.60;;;;;;;29.54;35.55;99306.41;5066042;28;20048;-69
2022/08/06 09:16:05;;;;;;;6.90;1.30;;;;;;;29.30;34.48;99300.34;5065925;28;20377;-69
2022/08/06 09:18:30;;;;;;;4.43;1.33;;;;;;;29.75;34.97;99304.56;5065988;28;20190;-69
2022/08/06 09:20:59;;;;;;;3.88;1.02;;;;;;;29.97;34.42;99307.13;5063502;28;20029;-69
2022/08/06 09:23:25;;;;;;;4.13;1.50;;;;;;;29.72;34.42;99302.09;5065202;28;20273;-69
2022/08/06 09:25:52;;;;;;;3.17;1.58;;;;;;;28.85;35.11;99305.00;5055200;28;20072;-69
2022/08/06 09:28:36;;;;;;;4.68;1.27;;;;;;;29.42;35.01;99305.56;5050601;28;20061;-69
2022/08/06 09:31:04;;;;;;;4.05;1.48;;;;;;;30.10;33.68;99314.06;5065218;28;20087;-69
2022/08/06 09:33:34;;;;;;;5.95;1.35;;;;;;;29.02;35.51;99308.03;5065193;28;20264;-69
2022/08/06 09:36:02;;;;;;;4.35;1.48;;;;;;;29.45;34.46;99304.47;5063282;28;20020;-69
2022/08/06 09:38:28;;;;;;;2.45;1.30;;;;;;;29.42;33.94;99299.31;5065356;28;20092;-69
2022/08/06 09:41:12;;;;;;;4.82;1.55;;;;;;;29.73;33.97;99295.69;5065072;28;20020;-69
2022/08/06 09:43:39;;;;;;;4.97;1.55;;;;;;;29.26;34.02;99294.31;5065007;28;20056;-69
2022/08/06 09:46:06;;;;;;;5.72;1.00;;;;;;;28.54;35.43;99290.44;5049498;28;20089;-69
2022/08/06 09:48:31;;;;;;;2.83;1.15;;;;;;;29.69;35.32;99314.09;5047334;28;20051;-69
2022/08/06 09:50:57;;;;;;;5.97;1.30;;;;;;;29.24;34.88;99297.16;5064908;28;20316;-69
2022/08/06 09:53:23;;;;;;;4.47;1.48;;;;;;;30.09;33.68;99300.63;5064559;28;20099;-69
2022/08/06 09:55:50;;;;;;;3.00;1.35;;;;;;;29.95;33.04;99298.22;5063356;28;20088;-69
2022/08/06 09:58:38;;;;;;;6.03;1.30;;;;;;;29.75;34.10;99296.41;5064977;28;20028;-69
2022/08/06 10:01:21;;;;;;;4.15;1.13;;;;;;;29.72;32.89;99307.53;5045115;28;20044;-69
2022/08/06 10:03:47;;;;;;;5.55;1.20;;;;;;;29.40;33.36;99296.72;5046007;28;20071;-69
2022/08/06 10:06:20;;;;;;;5.10;1.42;;;;;;;29.85;33.83;99302.75;5064545;28;20027;-69
2022/08/06 10:08:47;;;;;;;4.93;1.40;;;;;;;28.89;33.35;99282.13;5064549;28;20029;-69
2022/08/06 10:11:13;;;;;;;6.40;1.15;;;;;;;29.24;33.12;99282.75;5064438;28;20029;-69
2022/08/06 10:13:39;;;;;;;3.45;1.10;;;;;;;29.65;33.29;99298.22;5057179;28;20036;-69
2022/08/06 10:16:17;;;;;;;4.13;1.30;;;;;;;29.59;33.24;99296.00;5062697;28;20031;-68
2022/08/06 10:18:48;;;;;;;7.25;1.58;;;;;;;29.09;32.97;99293.03;5061697;28;20102;-68
2022/08/06 10:21:17;;;;;;;2.88;1.10;;;;;;;29.04;33.17;99289.84;5044887;28;20025;-68
2022/08/06 10:23:46;;;;;;;2.97;1.00;;;;;;;29.29;34.04;99287.78;5045968;28;20033;-68
2022/08/06 10:26:13;;;;;;;5.53;1.52;;;;;;;29.66;32.39;99294.50;5063322;28;20028;-68
2022/08/06 10:28:43;;;;;;;4.80;1.75;;;;;;;28.49;32.62;99275.56;5063614;28;20032;-68
2022/08/06 10:31:11;;;;;;;9.10;1.48;;;;;;;28.43;33.18;99287.72;5063881;28;20270;-68
2022/08/06 10:33:49;;;;;;;8.60;1.63;;;;;;;28.53;32.13;99280.59;5062694;28;20325;-68
2022/08/06 10:36:19;;;;;;;3.17;1.25;;;;;;;28.24;33.75;99271.25;5063931;28;20332;-68
2022/08/06 10:38:48;;;;;;;3.42;1.40;;;;;;;28.50;33.04;99283.56;5064195;28;20246;-68
2022/08/06 10:41:14;;;;;;;7.00;1.52;;;;;;;28.01;35.29;99272.25;5063744;28;20228;-68
2022/08/06 10:43:41;;;;;;;5.15;1.23;;;;;;;29.21;33.47;99297.41;5059155;28;20052;-68
2022/08/06 10:46:09;;;;;;;1.67;0.90;;;;;;;28.78;33.13;99272.16;5063289;28;20021;-68
2022/08/06 10:48:36;;;;;;;4.97;1.17;;;;;;;28.99;33.07;99269.50;5060524;28;20025;-68
2022/08/06 10:51:04;;;;;;;6.45;1.35;;;;;;;29.43;33.80;99274.75;5044545;28;20392;-68
2022/08/06 10:53:31;;;;;;;6.57;1.50;;;;;;;28.87;32.92;99260.56;5044046;28;20280;-68
2022/08/06 10:56:00;;;;;;;2.55;1.20;;;;;;;28.63;33.53;99262.59;5044160;28;20322;-68
2022/08/06 10:58:25;;;;;;;3.45;1.05;;;;;;;28.39;33.97;99259.19;5044136;28;20021;-68
2022/08/06 11:00:51;;;;;;;8.05;1.60;;;;;;;27.88;33.32;99244.44;5059989;28;20096;-68
2022/08/06 11:03:24;;;;;;;4.63;1.30;;;;;;;28.65;33.97;99260.63;5064012;28;20093;-68
2022/08/06 11:06:10;;;;;;;4.15;1.50;;;;;;;27.56;33.67;99251.53;5063877;28;20052;-68
2022/08/06 11:08:42;;;;;;;4.22;1.17;;;;;;;27.97;34.88;99256.38;5063873;28;20025;-68
2022/08/06 11:11:18;;;;;;;3.58;1.38;;;;;;;28.16;33.76;99252.03;5045314;28;20036;-68
2022/08/06 11:13:59;;;;;;;4.07;1.50;;;;;;;28.06;34.52;99261.91;5043831;28;20359;-68
2022/08/06 11:16:27;;;;;;;1.38;1.08;;;;;;;28.42;33.66;99256.22;5043766;28;20025;-68
2022/08/06 11:19:07;;;;;;;4.50;1.20;;;;;;;28.52;33.67;99251.78;5043739;28;20025;-68
2022/08/06 11:21:39;;;;;;;5.63;1.20;;;;;;;28.69;33.28;99251.25;5047594;28;20036;-68
2022/08/06 11:24:05;;;;;;;3.95;1.23;;;;;;;28.49;32.82;99249.34;5064094;28;20186;-68
2022/08/06 11:26:39;;;;;;;5.35;1.60;;;;;;;27.86;33.77;99259.94;5063573;28;20016;-68
2022/08/06 11:29:07;;;;;;;3.47;1.30;;;;;;;28.02;33.41;99246.03;5063115;28;20075;-68
2022/08/06 11:31:36;;;;;;;4.35;1.42;;;;;;;27.59;33.59;99239.59;5063475;28;20028;-68
2022/08/06 11:34:04;;;;;;;1.65;1.10;;;;;;;27.68;34.56;99231.59;5063094;28;20378;-68
2022/08/06 11:36:46;;;;;;;5.18;1.10;;;;;;;27.75;34.51;99240.97;5063570;28;20021;-68
2022/08/06 11:39:12;;;;;;;;;;;;;;;27.58;34.46;99233.31;5063802;28;20028;-68
2022/08/06 11:41:47;;;;;;;3.67;1.30;;;;;;;27.86;35.10;99227.47;5063341;28;19930;-68
2022/08/06 11:44:16;;;;;;;3.83;1.20;;;;;;;27.10;35.43;99224.47;5044963;28;20328;-68
2022/08/06 11:46:45;;;;;;;6.75;1.25;;;;;;;27.06;35.80;99214.00;5044041;28;20028;-68